Time;durP1;ratioP1;P1;durP2;ratioP2;P2;SDS_P1;SDS_P2;PMS_P1;PMS_P2;Temp;Humidity;BMP_temperature;BMP_pressure;BME280_temperature;BME280_humidity;BME280_pressure;Samples;Min_cycle;Max_cycle;Signal;HPM_P1;HPM_P2
2022/06/21 00:24:32;;;;;;;2.55;1.58;;;16.60;58.10;;;;;;5017015;28;20531;-79
2022/06/21 00:26:58;;;;;;;2.72;1.60;;;16.50;56.30;;;;;;5024579;28;20097;-79
2022/06/21 00:29:23;;;;;;;2.90;1.50;;;16.50;56.70;;;;;;5042738;28;20043;-79
2022/06/21 00:31:49;;;;;;;2.93;1.70;;;16.40;56.80;;;;;;5046762;28;20249;-78
2022/06/21 00:34:18;;;;;;;4.03;1.55;;;16.40;56.90;;;;;;5045883;28;20122;-79
2022/06/21 00:36:45;;;;;;;2.47;1.65;;;16.30;57.30;;;;;;5045746;28;20083;-79
2022/06/21 00:39:14;;;;;;;3.25;1.80;;;16.30;57.20;;;;;;5035032;28;20068;-79
2022/06/21 00:42:15;;;;;;;2.80;1.53;;;16.20;57.50;;;;;;5039699;28;20036;-79
2022/06/21 00:44:59;;;;;;;2.75;1.45;;;16.10;59.00;;;;;;5026491;28;20043;-79
2022/06/21 00:47:43;;;;;;;2.50;1.40;;;16.10;57.70;;;;;;5046580;28;20049;-79
2022/06/21 00:50:18;;;;;;;2.33;1.60;;;16.10;58.10;;;;;;5047464;28;20404;-79
2022/06/21 00:52:59;;;;;;;2.22;1.48;;;16.00;57.80;;;;;;5037505;28;20040;-79
2022/06/21 00:55:33;;;;;;;2.77;1.40;;;15.90;58.10;;;;;;5017200;28;20401;-79
2022/06/21 00:57:59;;;;;;;3.03;1.50;;;15.80;58.20;;;;;;5028714;28;20701;-79
2022/06/21 01:01:00;;;;;;;3.17;1.38;;;15.80;57.50;;;;;;5041227;28;20052;-79
2022/06/21 01:03:38;;;;;;;2.38;1.30;;;15.70;59.00;;;;;;5041359;28;20051;-79
2022/06/21 01:06:08;;;;;;;2.55;1.35;;;15.60;58.10;;;;;;5036443;28;20029;-79
2022/06/21 01:08:38;;;;;;;1.90;1.30;;;15.60;58.20;;;;;;5032569;28;20124;-79
2022/06/21 01:11:11;;;;;;;1.92;1.30;;;15.50;58.10;;;;;;5031194;28;20021;-79
2022/06/21 01:13:42;;;;;;;2.35;1.45;;;15.40;58.60;;;;;;5027311;28;20241;-79
2022/06/21 01:16:08;;;;;;;2.75;1.50;;;15.40;58.50;;;;;;5040904;28;20314;-79
2022/06/21 01:18:34;;;;;;;1.88;1.38;;;15.30;58.40;;;;;;5048718;28;20234;-79
2022/06/21 01:21:03;;;;;;;3.37;1.80;;;15.30;58.60;;;;;;5051417;28;20087;-79
2022/06/21 01:23:37;;;;;;;2.40;1.50;;;15.20;58.90;;;;;;5026041;28;20302;-79
2022/06/21 01:26:31;;;;;;;2.92;1.60;;;15.20;59.80;;;;;;5048392;28;20033;-79
2022/06/21 01:28:59;;;;;;;3.15;1.70;;;15.20;60.70;;;;;;5028741;28;20044;-79
2022/06/21 01:31:26;;;;;;;2.22;1.55;;;15.10;58.90;;;;;;5041379;28;20029;-79
2022/06/21 01:33:52;;;;;;;3.10;1.70;;;15.10;59.00;;;;;;5038740;28;20128;-79
2022/06/21 01:36:24;;;;;;;3.17;1.63;;;15.10;59.00;;;;;;5057655;28;20171;-79
2022/06/21 01:38:57;;;;;;;3.50;1.77;;;15.00;59.80;;;;;;5043447;28;20033;-79
2022/06/21 01:41:32;;;;;;;2.90;1.70;;;15.00;59.70;;;;;;5026091;28;20032;-79
2022/06/21 01:44:00;;;;;;;3.10;1.40;;;15.00;59.60;;;;;;5034900;28;20032;-79
2022/06/21 01:46:30;;;;;;;2.20;1.50;;;14.90;59.30;;;;;;5060060;28;20278;-79
2022/06/21 01:49:01;;;;;;;2.50;1.58;;;14.90;59.60;;;;;;5047565;28;20056;-79
2022/06/21 01:51:40;;;;;;;2.28;1.42;;;14.80;59.80;;;;;;5049223;28;20529;-79
2022/06/21 01:54:10;;;;;;;3.13;1.63;;;14.80;60.50;;;;;;5051427;28;20058;-79
2022/06/21 01:56:39;;;;;;;2.22;1.60;;;14.80;59.60;;;;;;5036643;28;20033;-79
2022/06/21 01:59:22;;;;;;;3.60;1.80;;;14.70;59.80;;;;;;5027942;28;20051;-79
2022/06/21 02:02:04;;;;;;;2.97;1.60;;;14.70;61.10;;;;;;5038798;28;20037;-79
2022/06/21 02:04:40;;;;;;;2.20;1.63;;;14.70;61.30;;;;;;5040841;28;20035;-79
2022/06/21 02:07:10;;;;;;;2.80;1.70;;;14.60;60.30;;;;;;5065145;28;20025;-79
2022/06/21 02:09:44;;;;;;;1.80;1.40;;;14.60;60.10;;;;;;5035214;28;22811;-79
2022/06/21 02:12:12;;;;;;;2.17;1.50;;;14.50;60.40;;;;;;5048920;28;20059;-79
2022/06/21 02:14:43;;;;;;;2.25;1.60;;;14.50;60.20;;;;;;5029432;28;20427;-79
2022/06/21 02:17:13;;;;;;;3.53;1.50;;;14.50;60.20;;;;;;5041740;28;20546;-79
2022/06/21 02:20:10;;;;;;;2.90;1.47;;;14.40;60.00;;;;;;5043216;28;20033;-79
2022/06/21 02:22:36;;;;;;;2.20;1.40;;;14.40;61.80;;;;;;5053041;28;20049;-79
2022/06/21 02:25:03;;;;;;;3.63;1.45;;;14.40;59.90;;;;;;5046764;28;20124;-79
2022/06/21 02:27:32;;;;;;;2.30;1.55;;;14.30;60.00;;;;;;5031639;28;20583;-80
2022/06/21 02:30:01;;;;;;;3.60;1.80;;;14.30;60.20;;;;;;5030339;28;20110;-79
2022/06/21 02:32:31;;;;;;;3.07;1.47;;;14.30;61.00;;;;;;5036607;28;20170;-79
2022/06/21 02:35:22;;;;;;;2.58;1.50;;;14.20;60.40;;;;;;5051790;28;20067;-79
2022/06/21 02:37:51;;;;;;;2.80;1.50;;;14.20;61.00;;;;;;5043820;28;20060;-79
2022/06/21 02:40:26;;;;;;;2.83;1.80;;;14.10;60.40;;;;;;5056303;28;20043;-79
2022/06/21 02:42:56;;;;;;;3.72;1.67;;;14.10;61.30;;;;;;5046994;28;20052;-79
2022/06/21 02:45:43;;;;;;;2.90;1.77;;;14.10;61.00;;;;;;5018324;28;20321;-79
2022/06/21 02:48:14;;;;;;;2.25;1.60;;;14.00;61.70;;;;;;5052571;28;20082;-79
2022/06/21 02:50:45;;;;;;;2.88;1.67;;;14.00;61.30;;;;;;5036450;28;20458;-79
2022/06/21 02:53:20;;;;;;;3.28;1.88;;;14.00;61.40;;;;;;5036799;28;20035;-79
2022/06/21 02:56:01;;;;;;;2.67;1.63;;;14.00;61.50;;;;;;5058950;28;20551;-79
2022/06/21 02:58:42;;;;;;;3.37;1.80;;;14.00;61.70;;;;;;5034243;28;20193;-79
2022/06/21 03:01:53;;;;;;;3.05;1.88;;;13.90;61.90;;;;;;5032783;28;20374;-79
2022/06/21 03:04:23;;;;;;;2.55;1.75;;;13.90;62.90;;;;;;5045603;28;20024;-79
2022/06/21 03:06:50;;;;;;;3.22;1.80;;;13.90;61.50;;;;;;5036330;28;20565;-79
2022/06/21 03:09:21;;;;;;;2.88;1.92;;;13.90;61.60;;;;;;5043093;28;20135;-79
2022/06/21 03:11:49;;;;;;;2.53;1.73;;;13.90;62.40;;;;;;5040279;28;20029;-79
2022/06/21 03:14:22;;;;;;;3.97;2.10;;;13.80;62.20;;;;;;5064282;28;20516;-79
2022/06/21 03:16:48;;;;;;;3.90;2.03;;;13.80;62.40;;;;;;5016639;28;20078;-79
2022/06/21 03:19:36;;;;;;;3.00;1.83;;;13.80;62.40;;;;;;5056893;28;20063;-79
2022/06/21 03:22:03;;;;;;;3.28;2.05;;;13.80;65.30;;;;;;5043742;28;20044;-79
2022/06/21 03:24:31;;;;;;;3.40;1.93;;;13.80;62.60;;;;;;5036148;28;20786;-79
2022/06/21 03:27:07;;;;;;;4.22;2.10;;;13.80;62.60;;;;;;5035679;28;20082;-79
2022/06/21 03:29:33;;;;;;;2.53;1.70;;;13.80;63.60;;;;;;5044813;28;20430;-79
2022/06/21 03:32:01;;;;;;;4.00;2.20;;;13.80;62.70;;;;;;5030179;28;20159;-79
2022/06/21 03:34:27;;;;;;;3.43;1.80;;;13.80;63.00;;;;;;5019193;28;20195;-79
2022/06/21 03:36:53;;;;;;;3.17;1.88;;;13.80;62.90;;;;;;5051488;28;20025;-79
2022/06/21 03:41:42;;;;;;;2.85;1.90;;;13.80;62.90;;;;;;5038967;28;20040;-79
2022/06/21 03:42:13;;;;;;;2.73;1.70;;;13.80;63.40;;;;;;5053257;28;20102;-79
2022/06/21 03:44:57;;;;;;;2.22;1.63;;;13.70;62.90;;;;;;5047929;28;20294;-79
2022/06/21 03:47:46;;;;;;;2.35;1.42;;;13.70;63.50;;;;;;5022355;28;20039;-79
2022/06/21 03:50:29;;;;;;;2.38;1.70;;;13.70;63.90;;;;;;5033852;28;20297;-79
2022/06/21 03:53:16;;;;;;;2.25;1.60;;;13.70;63.40;;;;;;5052378;28;20043;-79
2022/06/21 03:55:48;;;;;;;2.00;1.43;;;13.70;62.60;;;;;;5039614;28;20029;-79
2022/06/21 03:58:34;;;;;;;2.72;1.75;;;13.70;62.60;;;;;;5036523;28;20656;-79
2022/06/21 04:01:09;;;;;;;2.35;1.55;;;13.60;63.70;;;;;;5056553;28;20025;-79
2022/06/21 04:03:41;;;;;;;2.28;1.50;;;13.60;63.10;;;;;;5014923;28;20598;-79
2022/06/21 04:06:10;;;;;;;2.67;1.75;;;13.60;63.00;;;;;;5054375;28;20020;-79
2022/06/21 04:08:51;;;;;;;2.90;1.60;;;13.60;63.40;;;;;;5050439;28;20047;-79
2022/06/21 04:11:40;;;;;;;2.70;1.52;;;13.60;64.50;;;;;;5039047;28;20052;-79
2022/06/21 04:14:31;;;;;;;2.22;1.70;;;13.60;64.00;;;;;;5039453;28;20413;-79
2022/06/21 04:17:17;;;;;;;3.40;1.70;;;13.60;65.40;;;;;;5046786;28;20548;-79
2022/06/21 04:20:20;;;;;;;3.03;1.52;;;13.60;64.40;;;;;;5026328;28;20223;-79
2022/06/21 04:22:51;;;;;;;3.73;1.77;;;13.60;64.60;;;;;;5043136;28;20068;-79
2022/06/21 04:25:17;;;;;;;2.50;1.65;;;13.70;64.10;;;;;;5045476;28;20036;-78
2022/06/21 04:28:07;;;;;;;2.72;1.73;;;13.70;63.90;;;;;;5048628;28;20200;-79
2022/06/21 04:30:36;;;;;;;3.10;1.67;;;13.70;66.20;;;;;;5035327;28;20174;-79
2022/06/21 04:33:14;;;;;;;2.65;1.58;;;13.70;64.00;;;;;;5053954;28;20047;-79
2022/06/21 04:35:49;;;;;;;3.35;1.83;;;13.70;65.10;;;;;;5023947;28;20028;-79
2022/06/21 04:38:23;;;;;;;2.80;1.80;;;13.80;65.40;;;;;;5054754;28;20120;-79
2022/06/21 04:40:57;;;;;;;3.40;1.88;;;13.80;64.80;;;;;;5042624;28;20535;-79
2022/06/21 04:43:46;;;;;;;2.77;1.87;;;13.80;64.90;;;;;;5047037;28;20123;-79
2022/06/21 04:46:29;;;;;;;3.08;1.65;;;13.80;66.50;;;;;;5036451;28;20044;-79
2022/06/21 04:49:32;;;;;;;2.83;1.73;;;13.90;65.80;;;;;;5051593;28;20021;-79
2022/06/21 04:52:04;;;;;;;3.25;2.00;;;13.90;66.70;;;;;;5040032;28;20037;-79
2022/06/21 04:54:32;;;;;;;4.03;2.08;;;14.00;65.50;;;;;;5052761;28;20086;-79
2022/06/21 04:57:16;;;;;;;3.00;2.00;;;14.00;65.30;;;;;;5041523;28;20102;-79
2022/06/21 04:59:48;;;;;;;3.75;2.00;;;14.00;66.40;;;;;;5064616;28;20416;-79
2022/06/21 05:02:31;;;;;;;2.80;2.03;;;14.10;65.90;;;;;;5020152;28;20762;-78
2022/06/21 05:05:14;;;;;;;3.53;2.25;;;14.10;66.60;;;;;;5027426;28;20040;-79
2022/06/21 05:07:48;;;;;;;3.78;2.05;;;14.10;65.60;;;;;;5031834;28;20381;-79
2022/06/21 05:10:19;;;;;;;3.87;1.93;;;14.20;65.90;;;;;;5037471;28;20099;-79
2022/06/21 05:12:48;;;;;;;3.13;2.10;;;14.20;65.90;;;;;;5042171;28;20063;-79
2022/06/21 05:15:22;;;;;;;4.80;2.05;;;14.30;66.20;;;;;;5037581;28;20051;-79
2022/06/21 05:17:53;;;;;;;4.43;2.30;;;14.40;66.90;;;;;;5033346;28;20029;-79
2022/06/21 05:20:22;;;;;;;4.60;2.28;;;14.50;66.40;;;;;;5025239;28;20687;-79
2022/06/21 05:22:50;;;;;;;4.33;2.47;;;14.50;67.20;;;;;;5032547;28;20037;-79
2022/06/21 05:25:20;;;;;;;4.93;2.65;;;14.60;66.70;;;;;;5036347;28;20052;-79
2022/06/21 05:27:58;;;;;;;4.93;2.50;;;14.70;66.70;;;;;;5038052;28;20033;-79
2022/06/21 05:30:30;;;;;;;4.13;2.90;;;14.70;67.40;;;;;;5037771;28;20040;-79
2022/06/21 05:33:00;;;;;;;4.68;2.70;;;14.80;67.50;;;;;;5036274;28;20037;-80
2022/06/21 05:35:28;;;;;;;4.67;2.50;;;14.90;67.00;;;;;;5021335;28;20524;-79
2022/06/21 05:38:02;;;;;;;5.00;2.70;;;15.00;67.20;;;;;;5035969;28;20369;-80
2022/06/21 05:40:55;;;;;;;5.30;2.90;;;15.10;67.60;;;;;;5020576;28;20549;-79
2022/06/21 05:43:48;;;;;;;4.13;2.60;;;15.20;68.10;;;;;;5032044;28;20032;-79
2022/06/21 05:46:17;;;;;;;4.43;2.80;;;15.30;68.70;;;;;;5049767;28;20029;-79
2022/06/21 05:48:44;;;;;;;4.70;2.60;;;15.40;67.50;;;;;;5026521;28;20103;-80
2022/06/21 05:51:18;;;;;;;3.65;2.50;;;15.50;67.50;;;;;;5024606;28;20135;-79
2022/06/21 05:53:52;;;;;;;5.43;2.92;;;15.60;68.00;;;;;;5026128;28;20080;-79
2022/06/21 05:56:21;;;;;;;3.67;2.40;;;15.70;67.80;;;;;;5039819;28;20032;-79
2022/06/21 05:58:56;;;;;;;3.70;2.42;;;15.80;67.60;;;;;;5032063;28;20033;-79
2022/06/21 06:01:51;;;;;;;4.87;2.50;;;16.00;68.10;;;;;;5045880;28;20110;-79
2022/06/21 06:04:28;;;;;;;5.28;2.40;;;16.10;67.90;;;;;;5033994;28;20036;-79
2022/06/21 06:06:57;;;;;;;3.45;2.15;;;16.20;67.70;;;;;;5025759;28;20448;-79
2022/06/21 06:09:30;;;;;;;4.15;2.30;;;16.40;67.50;;;;;;5026001;28;20063;-79
2022/06/21 06:12:04;;;;;;;5.13;2.80;;;16.50;67.70;;;;;;5064024;28;20017;-79
2022/06/21 06:14:48;;;;;;;4.57;2.70;;;16.60;67.50;;;;;;5035684;28;20254;-79
2022/06/21 06:17:37;;;;;;;4.00;2.50;;;16.70;68.10;;;;;;5039332;28;20151;-79
2022/06/21 06:20:33;;;;;;;6.18;2.40;;;16.80;67.30;;;;;;5036809;28;20709;-79
2022/06/21 06:23:17;;;;;;;4.15;2.22;;;16.90;68.10;;;;;;5025786;28;20497;-79
2022/06/21 06:25:56;;;;;;;3.38;2.25;;;17.00;67.10;;;;;;5035948;28;20691;-79
2022/06/21 06:28:37;;;;;;;4.93;2.23;;;17.10;67.20;;;;;;5036693;28;20422;-79
2022/06/21 06:31:11;;;;;;;5.75;2.35;;;17.10;67.10;;;;;;5042436;28;20033;-79
2022/06/21 06:33:43;;;;;;;4.47;2.50;;;17.20;66.50;;;;;;5034879;28;20755;-79
2022/06/21 06:36:20;;;;;;;4.60;2.50;;;17.30;67.20;;;;;;5051808;28;20458;-79
2022/06/21 06:38:45;;;;;;;4.60;2.30;;;17.40;66.90;;;;;;5043827;28;20128;-79
2022/06/21 06:41:16;;;;;;;4.43;2.77;;;17.40;66.40;;;;;;5034132;28;20039;-79
2022/06/21 06:43:51;;;;;;;4.32;2.60;;;17.50;66.60;;;;;;5043937;28;20124;-79
2022/06/21 06:46:29;;;;;;;4.70;2.50;;;17.60;66.60;;;;;;5060107;28;20051;-79
2022/06/21 06:49:04;;;;;;;3.40;2.30;;;17.80;66.70;;;;;;5039423;28;20029;-80
2022/06/21 06:51:45;;;;;;;4.30;2.50;;;17.90;66.30;;;;;;5049577;28;20043;-79
2022/06/21 06:54:45;;;;;;;4.30;2.58;;;18.00;66.20;;;;;;5026466;28;20072;-79
2022/06/21 06:57:16;;;;;;;3.53;2.33;;;18.10;66.40;;;;;;5032178;28;20037;-79
2022/06/21 06:59:43;;;;;;;5.15;2.45;;;18.20;66.20;;;;;;5039303;28;20134;-79
2022/06/21 07:02:21;;;;;;;3.80;2.70;;;18.30;66.20;;;;;;5043562;28;20116;-80
2022/06/21 07:04:55;;;;;;;3.77;2.30;;;18.50;66.20;;;;;;5039501;28;20055;-79
2022/06/21 07:07:30;;;;;;;4.47;2.40;;;18.60;65.80;;;;;;5034446;28;20037;-79
2022/06/21 07:10:02;;;;;;;3.70;2.35;;;18.70;65.60;;;;;;5056432;28;20551;-79
2022/06/21 07:12:30;;;;;;;4.18;2.60;;;18.80;65.50;;;;;;5037124;28;20040;-79
2022/06/21 07:14:56;;;;;;;4.53;2.70;;;18.90;65.80;;;;;;5056479;28;20029;-80
2022/06/21 07:17:25;;;;;;;4.70;2.40;;;19.00;65.90;;;;;;5053699;28;20475;-80
2022/06/21 07:19:53;;;;;;;3.50;2.38;;;19.10;65.90;;;;;;5049762;28;20119;-80
2022/06/21 07:22:22;;;;;;;3.55;2.25;;;19.30;65.70;;;;;;5030001;28;20301;-79
2022/06/21 07:24:54;;;;;;;4.47;2.33;;;19.40;65.50;;;;;;5042437;28;20608;-79
2022/06/21 07:27:22;;;;;;;3.85;2.40;;;19.60;65.20;;;;;;5036380;28;20060;-79
2022/06/21 07:29:56;;;;;;;3.37;2.10;;;19.70;65.20;;;;;;5059548;28;20028;-79
2022/06/21 07:32:34;;;;;;;3.53;2.10;;;19.80;64.80;;;;;;5039206;28;20382;-79
2022/06/21 07:35:32;;;;;;;4.45;2.38;;;20.00;65.10;;;;;;5067733;28;20172;-79
2022/06/21 07:38:17;;;;;;;3.67;2.22;;;20.10;64.80;;;;;;5040459;28;20044;-80
2022/06/21 07:40:48;;;;;;;3.40;2.30;;;20.30;64.70;;;;;;5029656;28;20988;-79
2022/06/21 07:43:39;;;;;;;3.93;2.27;;;20.40;64.40;;;;;;5043121;28;20123;-79
2022/06/21 07:46:07;;;;;;;4.70;2.67;;;20.60;63.70;;;;;;5055131;28;20744;-79
2022/06/21 07:48:56;;;;;;;4.63;2.28;;;20.70;64.40;;;;;;5040838;28;20253;-79
2022/06/21 07:51:32;;;;;;;3.55;2.30;;;20.80;63.50;;;;;;5054786;28;20101;-79
2022/06/21 07:54:14;;;;;;;3.17;2.30;;;20.90;63.20;;;;;;5046180;28;20468;-79
2022/06/21 07:56:45;;;;;;;4.83;2.50;;;21.00;63.30;;;;;;5030186;28;20142;-79
2022/06/21 07:59:25;;;;;;;2.95;2.35;;;21.10;63.10;;;;;;5049036;28;20496;-79
2022/06/21 08:07:34;;;;;;;5.15;2.42;;;21.30;62.90;;;;;;5059095;28;20036;-79
2022/06/21 08:10:14;;;;;;;3.50;2.20;;;21.40;62.80;;;;;;5018342;28;20099;-79
2022/06/21 08:12:40;;;;;;;3.97;2.30;;;21.50;62.40;;;;;;5029236;28;21326;-80
2022/06/21 08:15:06;;;;;;;3.80;2.42;;;21.60;62.50;;;;;;5053552;28;20102;-79
2022/06/21 08:18:05;;;;;;;4.65;2.42;;;21.70;62.70;;;;;;5049412;28;20102;-80
2022/06/21 08:20:41;;;;;;;4.13;2.10;;;21.80;61.50;;;;;;5035673;28;20029;-80
2022/06/21 08:23:25;;;;;;;4.10;2.42;;;21.90;62.50;;;;;;5047659;28;20038;-79
2022/06/21 08:26:02;;;;;;;4.38;2.35;;;22.20;62.70;;;;;;5030363;28;20033;-79
2022/06/21 08:28:35;;;;;;;4.03;2.30;;;22.50;62.60;;;;;;5022423;28;20611;-79
2022/06/21 08:31:18;;;;;;;4.30;2.35;;;22.80;64.40;;;;;;5062244;28;20974;-80
2022/06/21 08:34:00;;;;;;;2.80;2.00;;;23.20;64.30;;;;;;5051902;28;20055;-80
2022/06/21 08:36:31;;;;;;;5.57;2.40;;;23.70;64.20;;;;;;5041040;28;20086;-79
2022/06/21 08:39:15;;;;;;;3.20;2.25;;;24.20;63.60;;;;;;5054462;28;20428;-80
2022/06/21 08:41:52;;;;;;;4.78;2.63;;;24.70;60.50;;;;;;5038127;28;20540;-80
2022/06/21 08:44:39;;;;;;;4.95;2.38;;;24.90;59.80;;;;;;5028343;28;20041;-79
2022/06/21 08:47:48;;;;;;;2.40;1.90;;;25.00;57.90;;;;;;5048905;28;20028;-79
2022/06/21 08:50:41;;;;;;;3.58;1.98;;;25.00;57.00;;;;;;5044104;28;20108;-79
2022/06/21 08:53:29;;;;;;;3.97;2.22;;;25.00;55.70;;;;;;5048162;28;20397;-80
2022/06/21 08:56:04;;;;;;;4.15;2.17;;;24.80;55.40;;;;;;5027874;28;20036;-79
2022/06/21 08:59:07;;;;;;;4.65;2.40;;;24.70;55.50;;;;;;5017968;28;21014;-79
2022/06/21 09:02:06;;;;;;;2.83;2.00;;;24.50;55.00;;;;;;5049003;28;20082;-80
2022/06/21 09:04:41;;;;;;;3.70;1.83;;;24.30;54.70;;;;;;5017339;28;20159;-79
2022/06/21 09:07:44;;;;;;;3.58;1.77;;;24.10;54.90;;;;;;5045110;28;20466;-79
2022/06/21 09:10:40;;;;;;;2.75;1.90;;;23.90;54.50;;;;;;5056222;28;20090;-80
2022/06/21 09:13:32;;;;;;;3.25;1.83;;;23.80;54.60;;;;;;5020329;28;20044;-79
2022/06/21 09:16:31;;;;;;;3.53;1.53;;;23.60;55.00;;;;;;5035830;28;20128;-80
2022/06/21 09:19:14;;;;;;;4.00;1.73;;;23.50;55.10;;;;;;5047878;28;20032;-80
2022/06/21 09:22:03;;;;;;;4.05;2.08;;;23.40;55.60;;;;;;5030588;28;20771;-80
2022/06/21 09:24:55;;;;;;;3.95;1.98;;;23.30;55.30;;;;;;5041595;28;20295;-80
2022/06/21 09:27:43;;;;;;;2.83;1.73;;;23.20;54.90;;;;;;5017616;28;20764;-79
2022/06/21 09:30:25;;;;;;;3.10;1.87;;;23.20;55.20;;;;;;5015302;28;20041;-79
2022/06/21 09:33:14;;;;;;;2.63;1.70;;;23.20;55.80;;;;;;5044915;28;20427;-79
2022/06/21 09:35:53;;;;;;;4.30;1.73;;;23.20;55.50;;;;;;5033593;28;20029;-79
2022/06/21 09:38:48;;;;;;;2.30;1.67;;;23.20;55.50;;;;;;5039207;28;20021;-79
2022/06/21 09:41:23;;;;;;;3.15;1.90;;;23.30;55.40;;;;;;5043946;28;20061;-80
2022/06/21 09:44:04;;;;;;;2.90;1.73;;;23.30;55.70;;;;;;5012895;28;20168;-80
2022/06/21 09:46:47;;;;;;;3.13;1.75;;;23.50;56.50;;;;;;5040240;28;20088;-80
2022/06/21 09:49:55;;;;;;;5.05;1.83;;;23.60;55.30;;;;;;5056886;28;20040;-79
2022/06/21 09:52:42;;;;;;;3.95;1.80;;;23.80;55.10;;;;;;5030427;28;20484;-79
2022/06/21 09:55:16;;;;;;;4.00;2.13;;;24.00;54.70;;;;;;5057814;28;20034;-80
2022/06/21 09:58:09;;;;;;;3.57;2.00;;;24.10;55.20;;;;;;5039070;28;20644;-79
2022/06/21 10:00:54;;;;;;;2.92;1.73;;;24.20;54.00;;;;;;5045808;28;20549;-79
2022/06/21 10:03:39;;;;;;;3.63;1.92;;;24.30;54.20;;;;;;5042771;28;20040;-79
2022/06/21 10:06:30;;;;;;;2.22;1.70;;;24.30;54.90;;;;;;5047320;28;20048;-79
2022/06/21 10:09:23;;;;;;;3.15;1.83;;;24.50;54.50;;;;;;5038575;28;20154;-79
2022/06/21 10:11:54;;;;;;;2.27;1.70;;;24.60;54.00;;;;;;5048821;28;20067;-79
2022/06/21 10:14:20;;;;;;;3.10;2.08;;;24.70;54.70;;;;;;5022348;28;20505;-79
2022/06/21 10:17:03;;;;;;;3.00;2.00;;;24.70;54.40;;;;;;5038749;28;20044;-79
2022/06/21 10:19:52;;;;;;;3.60;1.93;;;24.80;53.40;;;;;;5025920;28;20438;-80
2022/06/21 10:22:24;;;;;;;4.10;2.05;;;24.90;52.90;;;;;;5033456;28;20037;-79
2022/06/21 10:25:08;;;;;;;2.70;2.05;;;24.90;53.20;;;;;;5040828;28;20041;-79
2022/06/21 10:27:40;;;;;;;3.55;2.00;;;24.80;52.00;;;;;;5057530;28;20039;-79
2022/06/21 10:30:27;;;;;;;2.85;1.92;;;24.80;52.00;;;;;;5014794;28;20044;-79
2022/06/21 10:33:11;;;;;;;2.83;1.83;;;24.80;51.50;;;;;;5045204;28;20045;-80
2022/06/21 10:35:59;;;;;;;3.22;1.75;;;24.70;51.40;;;;;;5057344;28;20095;-80
2022/06/21 10:38:55;;;;;;;3.50;1.95;;;24.70;51.60;;;;;;5027851;28;20029;-79
2022/06/21 10:44:56;;;;;;;3.58;1.90;;;24.50;51.50;;;;;;5031482;28;20036;-79
2022/06/21 10:47:56;;;;;;;3.20;1.80;;;24.50;51.00;;;;;;5042955;28;20033;-79
2022/06/21 10:50:55;;;;;;;3.05;1.80;;;24.30;51.60;;;;;;5036410;28;20572;-80
2022/06/21 10:53:58;;;;;;;2.95;1.70;;;24.30;51.10;;;;;;5046952;28;20480;-79
2022/06/21 10:57:09;;;;;;;2.40;1.67;;;24.20;51.10;;;;;;5045300;28;20098;-79
2022/06/21 11:02:50;;;;;;;3.83;1.50;;;24.10;51.60;;;;;;5040567;28;20028;-79
2022/06/21 11:05:58;;;;;;;2.95;1.70;;;24.10;51.80;;;;;;5029780;28;20041;-79
2022/06/21 11:08:55;;;;;;;1.98;1.50;;;24.00;51.40;;;;;;5042119;28;20063;-80
2022/06/21 11:11:39;;;;;;;3.22;1.67;;;24.00;51.10;;;;;;5039208;28;20127;-79
2022/06/21 11:14:17;;;;;;;2.28;1.77;;;23.90;51.10;;;;;;5055463;28;20436;-79
2022/06/21 11:16:57;;;;;;;2.20;1.60;;;23.80;51.10;;;;;;5033948;28;20047;-79
2022/06/21 11:19:29;;;;;;;2.28;1.60;;;23.80;52.20;;;;;;5023021;28;20037;-79
2022/06/21 11:21:58;;;;;;;3.00;1.77;;;23.80;51.80;;;;;;5056734;28;20512;-80
2022/06/21 11:24:33;;;;;;;3.00;1.60;;;23.70;51.70;;;;;;5045307;28;20131;-79
2022/06/21 11:27:08;;;;;;;3.17;1.80;;;23.70;51.20;;;;;;5041240;28;20332;-80
2022/06/21 11:29:39;;;;;;;2.73;1.80;;;23.70;51.40;;;;;;5030522;28;20414;-79
2022/06/21 11:32:41;;;;;;;3.67;2.00;;;23.70;51.40;;;;;;5027945;28;20165;-79
2022/06/21 11:35:19;;;;;;;2.25;1.52;;;23.70;51.10;;;;;;5026801;28;20941;-79
2022/06/21 11:38:10;;;;;;;3.85;1.65;;;23.70;50.90;;;;;;5051779;28;20021;-79
2022/06/21 11:40:40;;;;;;;3.17;1.88;;;23.70;51.40;;;;;;5026993;28;20025;-79
2022/06/21 11:43:22;;;;;;;2.57;1.87;;;23.70;51.40;;;;;;5027437;28;20037;-79
2022/06/21 11:45:51;;;;;;;2.38;1.60;;;23.80;51.20;;;;;;5047902;28;20108;-79
2022/06/21 11:48:31;;;;;;;3.47;1.80;;;23.70;51.40;;;;;;5026794;28;20243;-79
2022/06/21 11:51:06;;;;;;;2.35;1.60;;;23.70;50.90;;;;;;5030539;28;20043;-80
2022/06/21 11:54:05;;;;;;;2.60;1.63;;;23.70;51.40;;;;;;5048799;28;20033;-80
2022/06/21 11:57:05;;;;;;;3.00;1.70;;;23.80;51.20;;;;;;5052539;28;20116;-80
2022/06/21 11:59:50;;;;;;;3.50;1.60;;;23.80;51.50;;;;;;5030744;28;20229;-79
2022/06/21 12:02:21;;;;;;;2.58;1.80;;;23.80;50.90;;;;;;5013786;28;20383;-79
2022/06/21 12:04:53;;;;;;;2.63;1.80;;;23.80;51.20;;;;;;5046719;28;20476;-79
2022/06/21 12:07:22;;;;;;;3.15;1.77;;;23.80;50.60;;;;;;5031339;28;20044;-79
2022/06/21 12:10:19;;;;;;;3.70;1.97;;;23.70;50.60;;;;;;5041064;28;20056;-80
2022/06/21 12:13:08;;;;;;;3.03;1.70;;;23.70;50.60;;;;;;5038887;28;20056;-79
2022/06/21 12:16:04;;;;;;;2.70;1.73;;;23.70;50.70;;;;;;5043991;28;20607;-79
2022/06/21 12:18:33;;;;;;;4.75;1.60;;;23.70;50.30;;;;;;5027741;28;20733;-79
2022/06/21 12:21:07;;;;;;;2.20;1.60;;;23.60;50.60;;;;;;5031098;28;20043;-79
2022/06/21 12:23:44;;;;;;;2.50;1.60;;;23.50;50.40;;;;;;5043274;28;20194;-79
2022/06/21 12:26:16;;;;;;;2.72;1.52;;;23.50;50.40;;;;;;5032002;28;20055;-79
2022/06/21 12:28:43;;;;;;;3.83;1.58;;;23.50;50.40;;;;;;5037373;28;20371;-79
2022/06/21 12:31:16;;;;;;;1.95;1.50;;;23.50;50.60;;;;;;5031189;28;20873;-79
2022/06/21 12:33:46;;;;;;;2.10;1.55;;;23.40;50.00;;;;;;5018408;28;20045;-79
2022/06/21 12:36:22;;;;;;;2.50;1.70;;;23.40;50.10;;;;;;5032449;28;20036;-79
2022/06/21 12:38:57;;;;;;;2.92;1.60;;;23.30;50.00;;;;;;5042637;28;20216;-79
2022/06/21 12:41:26;;;;;;;2.53;1.60;;;23.30;50.00;;;;;;5040112;28;20037;-79
2022/06/21 12:44:23;;;;;;;2.83;1.50;;;23.20;50.30;;;;;;5032917;28;20036;-79
2022/06/21 12:46:54;;;;;;;2.78;1.45;;;23.20;50.00;;;;;;5044543;28;20033;-79
2022/06/21 12:49:39;;;;;;;3.33;1.63;;;23.20;50.30;;;;;;5022831;28;22836;-80
2022/06/21 12:52:39;;;;;;;2.65;1.30;;;23.20;50.30;;;;;;5030955;28;20139;-79
2022/06/21 12:55:24;;;;;;;2.30;1.30;;;23.20;50.50;;;;;;5040542;28;20085;-75
2022/06/21 12:58:03;;;;;;;2.30;1.40;;;23.10;50.20;;;;;;5051349;28;20124;-75
2022/06/21 13:00:50;;;;;;;1.90;1.30;;;23.20;50.50;;;;;;5031350;28;20093;-79
2022/06/21 13:03:47;;;;;;;2.77;1.43;;;23.20;50.40;;;;;;5040729;28;20548;-79
2022/06/21 13:06:51;;;;;;;2.50;1.38;;;23.10;49.80;;;;;;5013263;28;20131;-79
2022/06/21 13:09:20;;;;;;;2.63;1.30;;;23.10;49.90;;;;;;5031909;28;20576;-79
2022/06/21 13:12:13;;;;;;;2.25;1.48;;;23.10;50.20;;;;;;5028991;28;20054;-79
2022/06/21 13:15:01;;;;;;;2.65;1.40;;;23.00;50.40;;;;;;5054522;28;20045;-79
2022/06/21 13:17:27;;;;;;;2.80;1.30;;;23.00;50.80;;;;;;5039790;28;20033;-79
2022/06/21 13:20:24;;;;;;;2.40;1.40;;;23.00;50.90;;;;;;5036098;28;20535;-79
2022/06/21 13:22:56;;;;;;;1.90;1.40;;;23.00;50.50;;;;;;5034933;28;20118;-79
2022/06/21 13:26:02;;;;;;;2.40;1.50;;;23.00;51.10;;;;;;5046159;28;20056;-79
2022/06/21 13:28:34;;;;;;;2.60;1.30;;;23.00;51.70;;;;;;5046603;28;20131;-79
2022/06/21 13:31:14;;;;;;;3.53;1.50;;;23.00;51.50;;;;;;5024000;28;20250;-79
2022/06/21 13:33:58;;;;;;;2.65;1.60;;;23.10;51.30;;;;;;5043564;28;20161;-79
2022/06/21 13:36:39;;;;;;;3.00;1.42;;;23.10;51.80;;;;;;5020529;28;20037;-79
2022/06/21 13:39:23;;;;;;;2.50;1.53;;;23.10;51.80;;;;;;5020889;28;20409;-78
2022/06/21 13:45:00;;;;;;;1.98;1.70;;;23.10;52.50;;;;;;5035585;28;20056;-79
2022/06/21 13:47:38;;;;;;;3.33;1.50;;;23.10;51.80;;;;;;5010593;28;20049;-79
2022/06/21 13:50:18;;;;;;;2.95;1.55;;;23.10;52.10;;;;;;5055760;28;20047;-79
2022/06/21 13:53:00;;;;;;;3.53;1.23;;;23.20;51.90;;;;;;5025901;28;20045;-79
2022/06/21 13:55:47;;;;;;;1.80;1.50;;;23.10;52.40;;;;;;5026045;28;20029;-79
2022/06/21 13:58:32;;;;;;;2.80;1.52;;;23.10;52.70;;;;;;5047522;28;20520;-79
2022/06/21 14:01:03;;;;;;;1.90;1.30;;;23.20;52.50;;;;;;5031431;28;20481;-79
2022/06/21 14:04:02;;;;;;;3.03;1.60;;;23.20;52.60;;;;;;5031562;28;20029;-78
2022/06/21 14:07:01;;;;;;;2.10;1.27;;;23.20;52.50;;;;;;4993900;28;20115;-78
2022/06/21 14:09:29;;;;;;;3.08;1.70;;;23.20;52.10;;;;;;5023946;28;20113;-79
2022/06/21 14:12:09;;;;;;;3.35;1.70;;;23.20;52.40;;;;;;5042624;28;20037;-78
2022/06/21 14:14:47;;;;;;;2.40;1.73;;;23.20;52.30;;;;;;5040485;28;20480;-79
2022/06/21 14:17:22;;;;;;;2.33;1.75;;;23.20;52.20;;;;;;5045545;28;20037;-79
2022/06/21 14:19:59;;;;;;;2.17;1.43;;;23.20;52.40;;;;;;5029573;28;20072;-78
2022/06/21 14:22:42;;;;;;;2.58;1.50;;;23.20;52.60;;;;;;5015803;28;20052;-78
2022/06/21 14:25:27;;;;;;;2.33;1.40;;;23.30;52.70;;;;;;5035759;28;20045;-79
2022/06/21 14:28:16;;;;;;;2.60;1.50;;;23.40;52.80;;;;;;5049960;28;20090;-79